Time;durP1;ratioP1;P1;durP2;ratioP2;P2;SDS_P1;SDS_P2;PMS_P1;PMS_P2;Temp;Humidity;BMP_temperature;BMP_pressure;BME280_temperature;BME280_humidity;BME280_pressure;Samples;Min_cycle;Max_cycle;Signal;HPM_P1;HPM_P2
2022/10/20 00:01:26;;;;;;;8.23;4.90;;;18.70;96.70;;;;;;5081516;28;20154;-72
2022/10/20 00:03:55;;;;;;;7.35;5.03;;;18.80;96.70;;;;;;5077239;28;20506;-72
2022/10/20 00:06:25;;;;;;;5.70;5.07;;;18.80;96.70;;;;;;5082804;28;20046;-72
2022/10/20 00:08:55;;;;;;;8.00;5.72;;;18.80;96.70;;;;;;5083287;28;20097;-72
2022/10/20 00:11:25;;;;;;;8.13;6.18;;;18.80;96.70;;;;;;5078785;28;20131;-72
2022/10/20 00:13:55;;;;;;;7.85;6.22;;;18.80;96.70;;;;;;5078066;28;20438;-72
2022/10/20 00:16:28;;;;;;;7.68;5.88;;;18.70;96.70;;;;;;5091093;28;20569;-72
2022/10/20 00:18:57;;;;;;;9.50;5.85;;;18.70;96.70;;;;;;5085596;28;20083;-72
2022/10/20 00:21:28;;;;;;;10.23;6.55;;;18.70;96.70;;;;;;5073407;28;20151;-72
2022/10/20 00:24:00;;;;;;;8.98;7.25;;;18.70;96.70;;;;;;5086525;28;20093;-72
2022/10/20 00:26:31;;;;;;;11.98;7.85;;;18.70;96.70;;;;;;5081471;28;20040;-72
2022/10/20 00:29:01;;;;;;;13.05;8.57;;;18.70;96.70;;;;;;5077853;28;20143;-70
2022/10/20 00:31:31;;;;;;;8.38;6.97;;;18.70;96.70;;;;;;5076563;28;20048;-71
2022/10/20 00:34:00;;;;;;;9.23;7.22;;;18.60;96.70;;;;;;5071900;28;20124;-71
2022/10/20 00:36:28;;;;;;;12.20;7.90;;;18.60;96.70;;;;;;5072339;28;20048;-71
2022/10/20 00:38:59;;;;;;;14.15;8.55;;;18.60;96.70;;;;;;5084728;28;20040;-71
2022/10/20 00:41:28;;;;;;;13.45;8.68;;;18.60;96.70;;;;;;5079465;28;20040;-71
2022/10/20 00:43:57;;;;;;;10.73;7.63;;;18.50;96.70;;;;;;5077350;28;20041;-71
2022/10/20 00:46:31;;;;;;;11.73;7.95;;;18.60;96.70;;;;;;5084267;28;20045;-70
2022/10/20 00:49:05;;;;;;;9.85;7.53;;;18.70;96.70;;;;;;5080793;28;20104;-70
2022/10/20 00:51:34;;;;;;;11.52;7.53;;;18.40;96.70;;;;;;5076257;28;20044;-71
2022/10/20 00:54:07;;;;;;;11.35;8.07;;;18.50;96.70;;;;;;5076890;28;20036;-71
2022/10/20 00:56:39;;;;;;;11.63;8.55;;;18.40;96.70;;;;;;5078152;28;20117;-71
2022/10/20 00:59:08;;;;;;;8.98;7.30;;;18.50;96.70;;;;;;5083624;28;20074;-71
2022/10/20 01:01:37;;;;;;;12.18;8.02;;;18.60;96.70;;;;;;5081158;28;20390;-71
2022/10/20 01:04:08;;;;;;;11.77;8.02;;;18.60;96.70;;;;;;5087782;28;20144;-71
2022/10/20 01:06:36;;;;;;;10.57;8.00;;;18.60;96.70;;;;;;5066712;28;20070;-71
2022/10/20 01:09:05;;;;;;;9.70;7.55;;;18.50;96.70;;;;;;5081783;28;20048;-71
2022/10/20 01:11:42;;;;;;;8.70;7.80;;;18.50;96.70;;;;;;5088550;28;20089;-72
2022/10/20 01:14:27;;;;;;;8.95;7.82;;;18.50;96.70;;;;;;5079605;28;20221;-72
2022/10/20 01:17:02;;;;;;;9.63;7.53;;;18.50;96.70;;;;;;5086353;28;20581;-72
2022/10/20 01:20:04;;;;;;;8.80;7.88;;;18.50;96.70;;;;;;5075676;28;20048;-72
2022/10/20 01:22:56;;;;;;;10.15;7.65;;;18.50;96.70;;;;;;5071722;28;20056;-72
2022/10/20 01:25:34;;;;;;;11.88;7.55;;;18.60;96.70;;;;;;5069520;28;20510;-73
2022/10/20 01:28:09;;;;;;;9.63;7.65;;;18.60;96.70;;;;;;5084620;28;20105;-73
2022/10/20 01:30:44;;;;;;;9.55;7.38;;;18.60;96.70;;;;;;5084102;28;20546;-73
2022/10/20 01:33:20;;;;;;;9.57;7.80;;;18.50;96.70;;;;;;5079363;28;20160;-73
2022/10/20 01:36:00;;;;;;;10.70;7.40;;;18.50;96.70;;;;;;5087802;28;20048;-73
2022/10/20 01:38:35;;;;;;;7.95;7.10;;;18.50;96.70;;;;;;5078268;28;20405;-72
2022/10/20 01:41:12;;;;;;;11.75;8.55;;;18.50;96.70;;;;;;5081511;28;20106;-73
2022/10/20 01:43:45;;;;;;;13.02;9.23;;;18.40;96.70;;;;;;5083328;28;20393;-72
2022/10/20 01:46:16;;;;;;;12.75;9.95;;;18.30;96.70;;;;;;5079796;28;20040;-73
2022/10/20 01:48:46;;;;;;;17.73;10.63;;;18.20;96.70;;;;;;5075691;28;20090;-72
2022/10/20 01:51:14;;;;;;;12.15;9.85;;;18.10;96.70;;;;;;5082708;28;20071;-73
2022/10/20 01:53:42;;;;;;;13.32;10.32;;;18.10;96.70;;;;;;5076783;28;20052;-73
2022/10/20 01:56:16;;;;;;;12.55;10.05;;;18.20;96.70;;;;;;5083077;28;20048;-72
2022/10/20 01:59:13;;;;;;;14.05;10.73;;;18.10;96.70;;;;;;5082278;28;20034;-72
2022/10/20 02:02:04;;;;;;;10.43;8.93;;;18.20;96.70;;;;;;5082077;28;20059;-73
2022/10/20 02:04:43;;;;;;;11.50;9.35;;;18.30;96.70;;;;;;5078357;28;20059;-72
2022/10/20 02:07:16;;;;;;;11.20;8.70;;;18.30;96.70;;;;;;5083419;28;20561;-72
2022/10/20 02:09:50;;;;;;;11.73;8.73;;;18.20;96.70;;;;;;5086918;28;20040;-73
2022/10/20 02:12:23;;;;;;;9.60;8.45;;;18.00;96.70;;;;;;5080976;28;20115;-72
2022/10/20 02:14:54;;;;;;;13.77;7.88;;;18.10;96.70;;;;;;5082136;28;20056;-73
2022/10/20 02:17:22;;;;;;;9.38;7.45;;;18.10;96.70;;;;;;5080909;28;20638;-73
2022/10/20 02:19:52;;;;;;;12.25;8.63;;;18.00;96.70;;;;;;5079472;28;20434;-72
2022/10/20 02:22:22;;;;;;;12.07;8.23;;;18.10;96.70;;;;;;5086713;28;20071;-72
2022/10/20 02:24:51;;;;;;;8.88;7.30;;;18.20;96.70;;;;;;5078201;28;20056;-74
2022/10/20 02:27:26;;;;;;;11.98;7.40;;;18.20;96.70;;;;;;5059274;28;20097;-73
2022/10/20 02:30:02;;;;;;;8.90;7.13;;;18.20;96.70;;;;;;5082514;28;20056;-72
2022/10/20 02:32:32;;;;;;;9.10;7.60;;;18.10;96.70;;;;;;5077428;28;20055;-74
2022/10/20 02:35:04;;;;;;;8.85;7.25;;;18.10;96.70;;;;;;5076847;28;20059;-72
2022/10/20 02:37:34;;;;;;;8.75;7.15;;;18.00;96.70;;;;;;5076003;28;21453;-73
2022/10/20 02:40:04;;;;;;;8.55;6.82;;;18.10;96.70;;;;;;5083096;28;20046;-73
2022/10/20 02:42:32;;;;;;;11.20;7.88;;;18.00;96.70;;;;;;5079284;28;20441;-73
2022/10/20 02:45:02;;;;;;;8.10;7.15;;;17.90;96.70;;;;;;5081462;28;20047;-72
2022/10/20 02:47:30;;;;;;;9.35;7.70;;;17.90;96.70;;;;;;5081897;28;20036;-72
2022/10/20 02:50:00;;;;;;;8.18;6.85;;;17.80;96.70;;;;;;5075873;28;20044;-74
2022/10/20 02:52:28;;;;;;;11.02;7.35;;;17.90;96.70;;;;;;5081632;28;20071;-73
2022/10/20 02:54:57;;;;;;;10.05;7.03;;;17.80;96.70;;;;;;5086221;28;20089;-73
2022/10/20 02:57:25;;;;;;;11.27;7.57;;;17.80;96.70;;;;;;5079845;28;20043;-73
2022/10/20 02:59:54;;;;;;;10.73;7.10;;;17.80;96.70;;;;;;5083684;28;20046;-73
2022/10/20 03:02:23;;;;;;;14.57;8.13;;;17.70;96.70;;;;;;5073285;28;20137;-73
2022/10/20 03:04:52;;;;;;;14.60;7.28;;;17.60;96.70;;;;;;5074563;28;21134;-72
2022/10/20 03:07:20;;;;;;;13.02;7.53;;;17.50;96.70;;;;;;5078808;28;20255;-72
2022/10/20 03:09:48;;;;;;;13.82;7.43;;;17.60;96.70;;;;;;5086436;28;20529;-73
2022/10/20 03:12:16;;;;;;;10.95;6.45;;;17.50;96.70;;;;;;5081158;28;20087;-72
2022/10/20 03:14:44;;;;;;;12.48;6.65;;;17.40;96.70;;;;;;5079373;28;20045;-73
2022/10/20 03:17:11;;;;;;;12.10;6.13;;;17.30;96.70;;;;;;5077272;28;20127;-72
2022/10/20 03:19:40;;;;;;;8.30;6.07;;;17.20;96.70;;;;;;5077508;28;20450;-72
2022/10/20 03:22:08;;;;;;;7.93;5.68;;;17.20;96.70;;;;;;5080455;28;20043;-72
2022/10/20 03:24:36;;;;;;;7.00;5.75;;;17.10;96.70;;;;;;5066995;28;20045;-72
2022/10/20 03:27:03;;;;;;;6.82;5.70;;;17.20;96.70;;;;;;5083215;28;20502;-72
2022/10/20 03:29:31;;;;;;;6.97;6.20;;;17.20;96.70;;;;;;5083895;28;20040;-72
2022/10/20 03:31:58;;;;;;;6.35;5.47;;;17.30;96.70;;;;;;5083764;28;20514;-72
2022/10/20 03:34:26;;;;;;;6.38;5.57;;;17.30;96.70;;;;;;5081787;28;20067;-73
2022/10/20 03:36:55;;;;;;;6.40;5.72;;;17.30;96.70;;;;;;5070326;28;20060;-72
2022/10/20 03:39:22;;;;;;;7.30;5.88;;;17.30;96.70;;;;;;5083676;28;20399;-73
2022/10/20 03:41:50;;;;;;;8.68;5.57;;;17.40;96.70;;;;;;5082378;28;20535;-72
2022/10/20 03:44:17;;;;;;;7.78;5.90;;;17.20;96.70;;;;;;5072641;28;20441;-73
2022/10/20 03:46:45;;;;;;;10.50;6.38;;;17.10;96.70;;;;;;5075609;28;20130;-72
2022/10/20 03:49:12;;;;;;;8.38;6.15;;;17.10;96.70;;;;;;5077790;28;20040;-72
2022/10/20 03:51:40;;;;;;;8.07;6.28;;;17.20;96.70;;;;;;5082840;28;20051;-72
2022/10/20 03:54:09;;;;;;;12.50;6.15;;;17.20;96.70;;;;;;5082808;28;20040;-72
2022/10/20 03:56:36;;;;;;;7.20;6.50;;;17.10;96.70;;;;;;5085758;28;20098;-72
2022/10/20 03:59:04;;;;;;;7.40;6.55;;;17.20;96.70;;;;;;5076290;28;20723;-71
2022/10/20 04:01:33;;;;;;;8.77;7.05;;;17.20;96.70;;;;;;5079581;28;20123;-73
2022/10/20 04:04:01;;;;;;;12.15;6.97;;;17.20;96.70;;;;;;5078110;28;20512;-72
2022/10/20 04:06:28;;;;;;;9.68;7.03;;;17.10;96.70;;;;;;5075737;28;20131;-72
2022/10/20 04:08:56;;;;;;;8.30;7.15;;;17.10;96.70;;;;;;5075584;28;20055;-72
2022/10/20 04:11:25;;;;;;;9.30;6.60;;;17.10;96.70;;;;;;5083516;28;20502;-72
2022/10/20 04:13:53;;;;;;;8.85;6.60;;;17.10;96.70;;;;;;5080979;28;20044;-72
2022/10/20 04:16:21;;;;;;;7.93;7.00;;;17.10;96.70;;;;;;5086235;28;20094;-72
2022/10/20 04:18:50;;;;;;;9.40;7.20;;;17.00;96.70;;;;;;5083788;28;20414;-72
2022/10/20 04:21:18;;;;;;;8.75;6.88;;;17.00;96.70;;;;;;5079268;28;20895;-72
2022/10/20 04:23:45;;;;;;;9.77;6.82;;;17.00;96.70;;;;;;5075816;28;20052;-72
2022/10/20 04:26:14;;;;;;;10.57;6.38;;;17.00;96.70;;;;;;5082878;28;20047;-72
2022/10/20 04:28:43;;;;;;;9.00;6.95;;;16.90;96.70;;;;;;5079449;28;20151;-72
2022/10/20 04:31:11;;;;;;;13.05;6.88;;;16.90;96.70;;;;;;5072566;28;20113;-72
2022/10/20 04:33:38;;;;;;;8.00;7.18;;;17.00;96.70;;;;;;5084366;28;20074;-72
2022/10/20 04:36:10;;;;;;;10.10;6.93;;;16.90;96.70;;;;;;5091033;28;20610;-72
2022/10/20 04:38:38;;;;;;;11.25;7.28;;;16.80;96.70;;;;;;5090241;28;20135;-72
2022/10/20 04:41:05;;;;;;;8.27;6.68;;;16.90;96.70;;;;;;5079391;28;20551;-73
2022/10/20 04:43:33;;;;;;;9.38;6.50;;;17.00;96.70;;;;;;5080427;28;20118;-72
2022/10/20 04:46:04;;;;;;;10.93;7.40;;;16.90;96.70;;;;;;5077694;28;20052;-72
2022/10/20 04:48:35;;;;;;;11.98;7.70;;;17.00;96.70;;;;;;5086533;28;20537;-72
2022/10/20 04:51:04;;;;;;;13.50;6.70;;;17.00;96.70;;;;;;5089882;28;20138;-72
2022/10/20 04:53:32;;;;;;;7.90;6.82;;;16.90;96.70;;;;;;5093520;28;20513;-72
2022/10/20 04:56:00;;;;;;;12.35;7.60;;;16.80;96.70;;;;;;5074543;28;21094;-72
2022/10/20 04:58:28;;;;;;;15.57;7.43;;;16.90;96.70;;;;;;5081062;28;20036;-72
2022/10/20 05:01:00;;;;;;;8.77;7.03;;;16.90;96.70;;;;;;5083206;28;20050;-72
2022/10/20 05:03:29;;;;;;;8.13;6.60;;;16.80;96.70;;;;;;5078522;28;20052;-73
2022/10/20 05:06:08;;;;;;;9.75;7.30;;;16.90;96.70;;;;;;5090344;28;20043;-72
2022/10/20 05:08:36;;;;;;;18.55;7.20;;;17.10;96.70;;;;;;5084085;28;20756;-72
2022/10/20 05:11:04;;;;;;;14.65;6.45;;;16.90;96.70;;;;;;5079404;28;20089;-72
2022/10/20 05:13:32;;;;;;;12.10;7.07;;;16.70;96.70;;;;;;5094373;28;20515;-72
2022/10/20 05:16:00;;;;;;;13.82;6.65;;;16.70;96.70;;;;;;5090961;28;20036;-72
2022/10/20 05:18:29;;;;;;;8.68;6.68;;;16.70;96.70;;;;;;5089255;28;20044;-72
2022/10/20 05:20:57;;;;;;;11.93;6.32;;;16.60;96.70;;;;;;5080985;28;20108;-73
2022/10/20 05:23:35;;;;;;;12.20;6.72;;;16.60;96.70;;;;;;5070412;28;20520;-72
2022/10/20 05:26:04;;;;;;;11.68;7.05;;;16.70;96.70;;;;;;5081266;28;20063;-74
2022/10/20 05:28:32;;;;;;;12.98;7.00;;;16.80;96.70;;;;;;5076576;28;20040;-72
2022/10/20 05:31:01;;;;;;;9.25;6.43;;;16.80;96.70;;;;;;5077553;28;20052;-72
2022/10/20 05:33:30;;;;;;;10.90;6.90;;;16.90;96.70;;;;;;5080600;28;20043;-72
2022/10/20 05:35:58;;;;;;;8.32;6.25;;;16.80;96.70;;;;;;5077985;28;20066;-73
2022/10/20 05:38:26;;;;;;;13.57;7.07;;;16.90;96.70;;;;;;5084595;28;20052;-72
2022/10/20 05:40:54;;;;;;;16.05;6.75;;;16.80;96.70;;;;;;5082086;28;20470;-72
2022/10/20 05:43:21;;;;;;;11.23;6.40;;;16.80;96.70;;;;;;5085008;28;20083;-72
2022/10/20 05:45:53;;;;;;;19.10;7.20;;;16.80;96.70;;;;;;5088857;28;20040;-72
2022/10/20 05:48:21;;;;;;;14.27;7.15;;;16.80;96.70;;;;;;5081069;28;20075;-72
2022/10/20 05:50:49;;;;;;;15.77;6.80;;;16.70;96.70;;;;;;5083907;28;20041;-76
2022/10/20 05:53:18;;;;;;;14.02;7.03;;;16.60;96.70;;;;;;5076136;28;20045;-76
2022/10/20 05:55:46;;;;;;;17.05;7.50;;;16.50;96.70;;;;;;5078977;28;20039;-75
2022/10/20 05:58:13;;;;;;;9.45;7.40;;;16.40;96.70;;;;;;5075593;28;20047;-73
2022/10/20 06:00:51;;;;;;;13.82;8.35;;;16.40;96.70;;;;;;5080511;28;20533;-74
2022/10/20 06:03:19;;;;;;;12.10;8.07;;;16.60;96.70;;;;;;5066903;28;20425;-73
2022/10/20 06:05:57;;;;;;;16.88;9.18;;;16.70;96.70;;;;;;5077920;28;20087;-73
2022/10/20 06:08:27;;;;;;;11.35;8.82;;;16.60;96.70;;;;;;5082502;28;20645;-73
2022/10/20 06:10:55;;;;;;;23.98;9.05;;;16.60;96.70;;;;;;5085309;28;20040;-73
2022/10/20 06:13:22;;;;;;;9.25;7.90;;;16.60;96.70;;;;;;5084311;28;20052;-74
2022/10/20 06:15:50;;;;;;;8.75;7.85;;;16.60;96.70;;;;;;5079285;28;20036;-75
2022/10/20 06:18:18;;;;;;;11.63;7.68;;;16.60;96.70;;;;;;5081985;28;20090;-76
2022/10/20 06:20:45;;;;;;;8.15;7.35;;;16.70;96.70;;;;;;5084725;28;20041;-73
2022/10/20 06:23:14;;;;;;;8.23;7.38;;;16.80;96.70;;;;;;5089241;28;20044;-73
2022/10/20 06:44:27;;;;;;;6.20;5.60;;;16.90;96.70;;;;;;5073728;28;20383;-74
2022/10/20 06:46:55;;;;;;;8.07;6.07;;;17.00;96.70;;;;;;5042263;28;20106;-74
2022/10/20 06:49:23;;;;;;;6.30;5.70;;;17.10;96.70;;;;;;5047244;28;20036;-73
2022/10/20 06:51:51;;;;;;;6.22;5.63;;;17.10;96.70;;;;;;5026277;28;20585;-74
2022/10/20 06:54:19;;;;;;;7.25;5.68;;;17.20;96.70;;;;;;5064388;28;20041;-73
2022/10/20 06:56:46;;;;;;;6.15;5.55;;;17.20;96.70;;;;;;5043318;28;20040;-74
2022/10/20 06:59:14;;;;;;;5.93;5.32;;;17.10;96.70;;;;;;5060995;28;20060;-74
2022/10/20 07:01:43;;;;;;;6.20;5.60;;;17.10;96.70;;;;;;5062659;28;20134;-74
2022/10/20 07:04:14;;;;;;;7.20;5.57;;;17.00;96.70;;;;;;5042552;28;20122;-74
2022/10/20 07:06:43;;;;;;;6.07;5.30;;;17.10;96.70;;;;;;5055043;28;20052;-74
2022/10/20 07:09:15;;;;;;;6.82;6.00;;;17.20;96.70;;;;;;5026957;28;20514;-73
2022/10/20 07:11:43;;;;;;;7.43;5.88;;;17.30;96.70;;;;;;5043278;28;20064;-73
2022/10/20 07:14:12;;;;;;;6.38;5.78;;;17.20;96.70;;;;;;5061070;28;20049;-74
2022/10/20 07:16:40;;;;;;;6.55;5.70;;;17.30;96.70;;;;;;5064236;28;20501;-74
2022/10/20 07:19:10;;;;;;;7.10;6.38;;;17.40;96.70;;;;;;5026991;28;20040;-73
2022/10/20 07:21:38;;;;;;;8.80;6.13;;;17.40;96.70;;;;;;5063974;28;20063;-74
2022/10/20 07:24:12;;;;;;;6.68;5.28;;;17.20;96.70;;;;;;5040475;28;20053;-74
2022/10/20 07:26:40;;;;;;;8.05;6.22;;;17.30;96.70;;;;;;5042642;28;20138;-74
2022/10/20 07:29:10;;;;;;;6.82;5.78;;;17.40;96.70;;;;;;5041115;28;20099;-73
2022/10/20 07:31:40;;;;;;;8.70;7.47;;;17.50;96.70;;;;;;5063609;28;20044;-74
2022/10/20 07:34:11;;;;;;;7.97;6.55;;;17.60;96.70;;;;;;5041753;28;20060;-74
2022/10/20 07:36:56;;;;;;;8.27;6.70;;;17.60;96.70;;;;;;5062442;28;21714;-74
2022/10/20 07:39:24;;;;;;;8.40;6.75;;;17.60;96.70;;;;;;5041908;28;20039;-74
2022/10/20 07:41:52;;;;;;;8.82;7.20;;;17.50;96.70;;;;;;5062571;28;20114;-74
2022/10/20 07:44:19;;;;;;;8.43;6.88;;;17.60;96.70;;;;;;5052245;28;20387;-74
2022/10/20 07:46:47;;;;;;;8.75;7.85;;;17.50;96.70;;;;;;5052589;28;20060;-74
2022/10/20 07:49:16;;;;;;;10.77;7.30;;;17.70;96.70;;;;;;5028799;28;20041;-74
2022/10/20 07:52:15;;;;;;;8.63;7.25;;;17.80;96.70;;;;;;5032284;28;20063;-74
2022/10/20 07:54:43;;;;;;;7.53;6.78;;;17.90;96.70;;;;;;5048373;28;20040;-74
2022/10/20 07:57:11;;;;;;;9.48;7.45;;;17.90;96.70;;;;;;5032232;28;20052;-73
2022/10/20 07:59:39;;;;;;;8.48;7.60;;;18.00;96.70;;;;;;5047256;28;20047;-74
2022/10/20 08:02:08;;;;;;;8.02;7.18;;;18.20;96.70;;;;;;5027627;28;20045;-74
2022/10/20 08:04:37;;;;;;;9.68;7.80;;;18.20;96.70;;;;;;5030081;28;20048;-74
2022/10/20 08:07:05;;;;;;;9.70;7.82;;;18.40;96.70;;;;;;5045843;28;20048;-74
2022/10/20 08:09:33;;;;;;;8.77;7.22;;;18.40;96.70;;;;;;5014681;28;20052;-74
2022/10/20 08:12:01;;;;;;;8.95;7.63;;;18.50;96.70;;;;;;5050502;28;20048;-74
2022/10/20 08:14:34;;;;;;;10.02;7.38;;;18.60;96.70;;;;;;5046634;28;20076;-73
2022/10/20 08:17:02;;;;;;;9.40;8.40;;;18.60;96.70;;;;;;5040847;28;20106;-74
2022/10/20 08:19:30;;;;;;;9.98;7.90;;;18.60;96.70;;;;;;5029015;28;20041;-74
2022/10/20 08:22:03;;;;;;;10.90;7.78;;;18.70;96.70;;;;;;5026007;28;20060;-73
2022/10/20 08:24:31;;;;;;;9.77;7.57;;;18.90;96.70;;;;;;5029396;28;20045;-74
2022/10/20 08:27:00;;;;;;;10.43;7.57;;;18.90;96.70;;;;;;5049768;28;20045;-73
2022/10/20 08:29:27;;;;;;;8.20;7.40;;;19.00;96.70;;;;;;5031778;28;20045;-73
2022/10/20 08:31:55;;;;;;;9.18;7.95;;;19.00;96.70;;;;;;5050570;28;20072;-74
2022/10/20 08:34:23;;;;;;;9.40;7.07;;;19.10;96.70;;;;;;5048742;28;20049;-73
2022/10/20 08:36:51;;;;;;;8.30;7.50;;;19.10;96.70;;;;;;5040619;28;20053;-74
2022/10/20 08:39:20;;;;;;;8.30;7.50;;;19.10;96.70;;;;;;5027661;28;20067;-73
2022/10/20 08:41:50;;;;;;;11.05;8.48;;;19.10;96.70;;;;;;5045404;28;20051;-73
2022/10/20 08:44:42;;;;;;;9.00;8.05;;;19.20;96.70;;;;;;5028321;28;20045;-74
2022/10/20 08:47:22;;;;;;;9.77;8.75;;;19.20;96.70;;;;;;5045699;28;20037;-74
2022/10/20 08:49:53;;;;;;;10.48;8.93;;;19.30;96.70;;;;;;5031960;28;20065;-74
2022/10/20 08:52:22;;;;;;;12.73;8.75;;;19.30;96.70;;;;;;5025105;28;20046;-74
2022/10/20 08:54:54;;;;;;;11.60;9.80;;;19.40;96.70;;;;;;5029621;28;20049;-74
2022/10/20 08:57:23;;;;;;;11.02;8.95;;;19.40;96.70;;;;;;5043558;28;20029;-74
2022/10/20 08:59:52;;;;;;;9.02;8.10;;;19.50;96.70;;;;;;5026782;28;20069;-73
2022/10/20 09:02:21;;;;;;;10.23;8.98;;;19.60;96.70;;;;;;5046961;28;20211;-76
2022/10/20 09:04:51;;;;;;;11.27;10.13;;;19.70;96.70;;;;;;5052261;28;20045;-74
2022/10/20 09:07:25;;;;;;;17.13;13.45;;;19.80;96.70;;;;;;5027610;28;20681;-74
2022/10/20 09:10:03;;;;;;;15.50;12.70;;;19.90;96.70;;;;;;5044986;28;20045;-74
2022/10/20 09:12:32;;;;;;;13.35;10.63;;;20.00;96.70;;;;;;5024535;28;20460;-74
2022/10/20 09:15:00;;;;;;;11.35;9.68;;;20.00;96.70;;;;;;5028839;28;20069;-74
2022/10/20 09:17:28;;;;;;;10.23;8.70;;;20.10;96.70;;;;;;5048098;28;20118;-75
2022/10/20 09:19:58;;;;;;;11.35;8.90;;;20.10;96.70;;;;;;5027611;28;20453;-74
2022/10/20 09:22:27;;;;;;;11.38;7.97;;;20.20;96.70;;;;;;5017478;28;20076;-74
2022/10/20 09:25:04;;;;;;;10.23;8.48;;;20.20;96.70;;;;;;5023167;28;21253;-75
2022/10/20 09:27:34;;;;;;;10.23;8.15;;;20.30;96.70;;;;;;5047056;28;20041;-74
2022/10/20 09:30:14;;;;;;;13.98;9.73;;;20.40;96.70;;;;;;5027765;28;20585;-73
2022/10/20 09:32:42;;;;;;;11.45;9.18;;;20.50;96.70;;;;;;5050541;28;20045;-73
2022/10/20 09:35:26;;;;;;;11.18;8.45;;;20.60;96.70;;;;;;5010656;28;21098;-73
2022/10/20 09:38:01;;;;;;;12.73;9.68;;;20.60;96.70;;;;;;5040247;28;20045;-75
2022/10/20 09:40:31;;;;;;;13.80;9.80;;;20.80;96.70;;;;;;5028042;28;20052;-73
2022/10/20 09:43:01;;;;;;;10.32;8.32;;;20.80;96.70;;;;;;5046719;28;20140;-73
2022/10/20 09:45:31;;;;;;;14.93;9.25;;;20.90;96.70;;;;;;5044729;28;20045;-73
2022/10/20 09:48:06;;;;;;;16.52;10.63;;;20.90;96.70;;;;;;5040288;28;20072;-74
2022/10/20 09:50:37;;;;;;;10.15;8.30;;;21.00;96.70;;;;;;5047287;28;20532;-74
2022/10/20 09:53:14;;;;;;;10.40;8.68;;;21.10;96.70;;;;;;5047608;28;20055;-74
2022/10/20 09:55:48;;;;;;;10.98;8.18;;;21.30;96.70;;;;;;5027607;28;20057;-74
2022/10/20 09:58:22;;;;;;;12.15;8.82;;;21.50;96.70;;;;;;5027738;28;20099;-75
2022/10/20 10:00:56;;;;;;;11.90;8.10;;;21.60;96.70;;;;;;5028434;28;20494;-73
2022/10/20 10:03:24;;;;;;;9.82;8.40;;;21.70;96.70;;;;;;5043754;28;20041;-75
2022/10/20 10:05:54;;;;;;;10.30;8.77;;;21.80;96.70;;;;;;5045941;28;20072;-75
2022/10/20 10:08:24;;;;;;;9.45;8.25;;;21.90;96.70;;;;;;5030848;28;20395;-74
2022/10/20 10:11:01;;;;;;;10.85;8.40;;;22.00;96.70;;;;;;5047290;28;20041;-75
2022/10/20 10:13:30;;;;;;;10.45;8.35;;;22.00;96.70;;;;;;5024122;28;20152;-75
2022/10/20 10:16:01;;;;;;;12.20;8.50;;;22.10;96.70;;;;;;5048207;28;20057;-75
2022/10/20 10:18:29;;;;;;;9.57;8.15;;;22.10;96.70;;;;;;5010328;28;20041;-74
2022/10/20 10:21:02;;;;;;;12.00;8.60;;;22.10;96.70;;;;;;5046059;28;20049;-74
2022/10/20 10:23:35;;;;;;;11.25;8.15;;;22.20;96.70;;;;;;5026547;28;20046;-75
2022/10/20 10:26:41;;;;;;;12.20;7.68;;;22.40;96.70;;;;;;5025727;28;20098;-74
2022/10/20 10:29:17;;;;;;;9.13;7.47;;;22.60;96.70;;;;;;5023950;28;20086;-75
2022/10/20 10:31:50;;;;;;;7.60;6.88;;;22.60;96.70;;;;;;5029743;28;20084;-75
2022/10/20 10:34:46;;;;;;;8.98;7.05;;;22.60;96.70;;;;;;5029603;28;20084;-75
2022/10/20 10:37:16;;;;;;;8.10;7.15;;;22.80;96.70;;;;;;5012919;28;20057;-75
2022/10/20 10:39:44;;;;;;;8.88;7.43;;;22.90;96.70;;;;;;5028083;28;20059;-75
2022/10/20 10:42:28;;;;;;;8.18;5.97;;;23.00;96.70;;;;;;5009015;28;20052;-75
2022/10/20 10:45:04;;;;;;;9.43;7.28;;;23.20;96.70;;;;;;5025019;28;20159;-74
2022/10/20 10:47:53;;;;;;;9.55;7.03;;;23.20;96.70;;;;;;5025549;28;20494;-75
2022/10/20 10:50:29;;;;;;;8.68;6.50;;;23.20;96.70;;;;;;5026051;28;20073;-75
2022/10/20 10:53:12;;;;;;;8.80;5.63;;;23.30;96.70;;;;;;5020904;28;20519;-74
2022/10/20 10:55:49;;;;;;;7.05;6.35;;;23.40;96.70;;;;;;5046298;28;20041;-74
2022/10/20 10:58:34;;;;;;;6.93;5.55;;;23.50;96.70;;;;;;5049175;28;20124;-74
2022/10/20 11:01:14;;;;;;;8.25;5.40;;;23.60;96.70;;;;;;5045047;28;20048;-72
2022/10/20 11:03:58;;;;;;;6.05;5.28;;;23.60;96.70;;;;;;5023870;28;20053;-73
2022/10/20 11:06:36;;;;;;;7.68;5.50;;;23.80;96.70;;;;;;5028227;28;20064;-72
2022/10/20 11:09:23;;;;;;;5.93;5.00;;;24.00;96.70;;;;;;5024644;28;20045;-73
2022/10/20 11:12:13;;;;;;;8.20;5.03;;;24.00;96.70;;;;;;5018362;28;20068;-73
2022/10/20 11:14:50;;;;;;;5.68;4.93;;;24.10;96.70;;;;;;5045509;28;20059;-71
2022/10/20 11:17:33;;;;;;;6.13;5.10;;;24.10;96.70;;;;;;5014331;28;20072;-72
2022/10/20 11:20:17;;;;;;;9.00;5.18;;;24.20;96.70;;;;;;5028105;28;20567;-72
2022/10/20 11:23:02;;;;;;;6.50;5.07;;;24.30;96.70;;;;;;5046392;28;20040;-71
2022/10/20 11:25:34;;;;;;;5.47;3.88;;;24.50;96.70;;;;;;5043145;28;20087;-71
2022/10/20 11:28:28;;;;;;;8.05;4.05;;;24.60;96.70;;;;;;5015944;28;20055;-71
2022/10/20 11:30:59;;;;;;;5.68;3.80;;;24.70;96.70;;;;;;5024745;28;20103;-71
2022/10/20 11:33:34;;;;;;;5.65;4.10;;;24.70;96.70;;;;;;5029559;28;20053;-71
2022/10/20 11:36:11;;;;;;;7.30;4.38;;;24.80;96.70;;;;;;5045007;28;20048;-71
2022/10/20 11:38:42;;;;;;;4.60;3.60;;;24.90;96.70;;;;;;5047804;28;20055;-72
2022/10/20 11:41:17;;;;;;;7.30;3.92;;;25.00;96.70;;;;;;5028508;28;20616;-71
2022/10/20 11:43:54;;;;;;;4.93;3.73;;;25.10;96.70;;;;;;5044997;28;20067;-72
2022/10/20 11:46:36;;;;;;;5.30;3.65;;;25.30;96.70;;;;;;5050632;28;20079;-71
2022/10/20 11:49:06;;;;;;;5.60;3.17;;;25.40;96.70;;;;;;5051112;28;20053;-72
2022/10/20 11:52:23;;;;;;;5.93;3.72;;;25.50;96.70;;;;;;5026880;28;20464;-72
2022/10/20 11:55:17;;;;;;;5.15;3.50;;;25.60;96.70;;;;;;4983438;28;20089;-72
2022/10/20 11:57:59;;;;;;;4.70;3.15;;;25.70;96.70;;;;;;4984835;28;20061;-72
2022/10/20 12:01:06;;;;;;;5.63;3.20;;;25.70;96.70;;;;;;4979579;28;20085;-73
2022/10/20 12:04:00;;;;;;;4.22;2.92;;;25.70;96.70;;;;;;4984835;28;20057;-73
2022/10/20 12:06:49;;;;;;;6.38;3.10;;;25.80;96.70;;;;;;4975688;28;20045;-74
2022/10/20 12:09:51;;;;;;;4.75;3.17;;;26.00;96.70;;;;;;4982748;28;20046;-74
2022/10/20 12:12:25;;;;;;;5.80;3.17;;;26.10;96.70;;;;;;4981422;28;20074;-73
2022/10/20 12:14:57;;;;;;;3.42;2.83;;;26.40;96.70;;;;;;4967009;28;20157;-74
2022/10/20 12:17:33;;;;;;;5.63;3.20;;;26.30;96.70;;;;;;4969137;28;20628;-73
2022/10/20 12:20:41;;;;;;;4.78;3.22;;;26.30;96.70;;;;;;4947619;28;20054;-73
2022/10/20 12:23:51;;;;;;;5.97;3.17;;;26.30;96.70;;;;;;4976820;28;20434;-74
2022/10/20 12:27:05;;;;;;;4.50;2.92;;;26.40;96.70;;;;;;5009940;28;20136;-73
2022/10/20 12:29:56;;;;;;;4.28;3.00;;;26.60;96.70;;;;;;5044502;28;20123;-73
2022/10/20 12:32:53;;;;;;;6.20;3.10;;;26.80;96.70;;;;;;5031991;28;20070;-73
2022/10/20 12:35:43;;;;;;;7.03;3.20;;;26.90;96.70;;;;;;5034172;28;20076;-74
2022/10/20 12:38:17;;;;;;;3.88;2.65;;;27.00;96.70;;;;;;4995176;28;20049;-73
2022/10/20 12:40:50;;;;;;;3.63;2.72;;;27.20;96.70;;;;;;5024615;28;20597;-73
2022/10/20 12:43:48;;;;;;;5.63;2.83;;;27.30;96.70;;;;;;5044735;28;20136;-72
2022/10/20 12:46:25;;;;;;;5.60;2.63;;;27.30;96.70;;;;;;5021781;28;20313;-72
2022/10/20 12:48:58;;;;;;;5.20;2.97;;;27.30;96.70;;;;;;5013742;28;20436;-73
2022/10/20 12:51:35;;;;;;;4.40;2.33;;;27.30;96.70;;;;;;5051101;28;20073;-74
2022/10/20 12:54:15;;;;;;;4.57;2.78;;;27.30;96.70;;;;;;5006320;28;20131;-73
2022/10/20 12:56:43;;;;;;;3.40;2.78;;;27.30;96.70;;;;;;5044530;28;20071;-74
2022/10/20 12:59:38;;;;;;;5.55;3.03;;;27.40;96.70;;;;;;5044695;28;20071;-74
2022/10/20 13:02:43;;;;;;;4.63;3.30;;;27.30;96.70;;;;;;5044863;28;20498;-73
2022/10/20 13:05:35;;;;;;;5.40;2.72;;;27.40;96.70;;;;;;5018414;28;20064;-72
2022/10/20 13:08:33;;;;;;;3.25;2.47;;;27.30;96.70;;;;;;5029110;28;20556;-72
2022/10/20 13:11:47;;;;;;;4.63;2.47;;;27.40;96.70;;;;;;5022384;28;20048;-73
2022/10/20 13:14:36;;;;;;;4.60;2.70;;;27.50;96.70;;;;;;5005838;28;20486;-73
2022/10/20 13:17:26;;;;;;;4.47;2.83;;;27.40;96.70;;;;;;5022800;28;20144;-72
2022/10/20 13:19:58;;;;;;;3.67;2.97;;;27.20;96.70;;;;;;5027166;28;20433;-72
2022/10/20 13:22:41;;;;;;;5.35;2.63;;;27.00;96.70;;;;;;5044628;28;20518;-72
2022/10/20 13:25:18;;;;;;;7.78;3.13;;;27.00;96.70;;;;;;5044366;28;20048;-73
2022/10/20 13:27:48;;;;;;;5.38;2.70;;;27.00;96.70;;;;;;5031107;28;20068;-73
2022/10/20 13:30:21;;;;;;;3.78;2.67;;;27.20;96.70;;;;;;5023381;28;20486;-73
2022/10/20 13:32:58;;;;;;;5.75;2.70;;;27.30;96.70;;;;;;5044785;28;20037;-72
2022/10/20 13:35:52;;;;;;;5.40;2.65;;;27.30;96.70;;;;;;5024869;28;20045;-72